sensor_id;sensor_type;location;lat;lon;timestamp;temperature;humidity
12436;DHT22;6282;51.440;6.938;2023-07-13T00:01:13;18.30;97.80
12436;DHT22;6282;51.440;6.938;2023-07-13T00:06:08;17.80;1.00
12436;DHT22;6282;51.440;6.938;2023-07-13T00:11:03;17.20;99.90
12436;DHT22;6282;51.440;6.938;2023-07-13T00:15:59;16.70;99.90
12436;DHT22;6282;51.440;6.938;2023-07-13T00:20:55;17.20;99.90
12436;DHT22;6282;51.440;6.938;2023-07-13T00:23:31;16.80;1.00
12436;DHT22;6282;51.440;6.938;2023-07-13T00:25:59;17.40;1.00
12436;DHT22;6282;51.440;6.938;2023-07-13T00:33:22;16.70;99.90
12436;DHT22;6282;51.440;6.938;2023-07-13T00:38:16;16.80;1.00
12436;DHT22;6282;51.440;6.938;2023-07-13T00:43:13;17.20;99.90
12436;DHT22;6282;51.440;6.938;2023-07-13T00:46:14;17.00;1.00
12436;DHT22;6282;51.440;6.938;2023-07-13T00:48:43;16.70;18.60
12436;DHT22;6282;51.440;6.938;2023-07-13T00:51:11;16.80;1.00
12436;DHT22;6282;51.440;6.938;2023-07-13T00:53:39;16.80;1.00
12436;DHT22;6282;51.440;6.938;2023-07-13T00:56:06;17.00;99.90
12436;DHT22;6282;51.440;6.938;2023-07-13T00:58:33;16.70;71.60
12436;DHT22;6282;51.440;6.938;2023-07-13T01:01:01;17.10;99.90
12436;DHT22;6282;51.440;6.938;2023-07-13T01:03:27;16.40;99.90
12436;DHT22;6282;51.440;6.938;2023-07-13T01:08:23;16.20;99.90
12436;DHT22;6282;51.440;6.938;2023-07-13T01:10:55;16.00;1.00
12436;DHT22;6282;51.440;6.938;2023-07-13T01:13:22;16.40;55.30
12436;DHT22;6282;51.440;6.938;2023-07-13T01:15:51;16.80;1.00
12436;DHT22;6282;51.440;6.938;2023-07-13T01:20:52;16.40;1.00
12436;DHT22;6282;51.440;6.938;2023-07-13T01:23:19;16.40;99.90
12436;DHT22;6282;51.440;6.938;2023-07-13T01:28:13;16.20;1.00
12436;DHT22;6282;51.440;6.938;2023-07-13T01:30:43;16.80;1.00
12436;DHT22;6282;51.440;6.938;2023-07-13T01:33:12;16.90;99.90
12436;DHT22;6282;51.440;6.938;2023-07-13T01:35:39;14.90;1.00
12436;DHT22;6282;51.440;6.938;2023-07-13T01:38:08;16.20;19.60
12436;DHT22;6282;51.440;6.938;2023-07-13T01:45:29;16.20;99.90
12436;DHT22;6282;51.440;6.938;2023-07-13T01:50:24;16.10;1.00
12436;DHT22;6282;51.440;6.938;2023-07-13T01:55:20;16.40;1.00
12436;DHT22;6282;51.440;6.938;2023-07-13T01:57:47;16.10;99.90
12436;DHT22;6282;51.440;6.938;2023-07-13T02:00:15;16.00;99.90
12436;DHT22;6282;51.440;6.938;2023-07-13T02:02:42;16.70;1.00
12436;DHT22;6282;51.440;6.938;2023-07-13T02:05:10;16.10;99.90
12436;DHT22;6282;51.440;6.938;2023-07-13T02:10:05;15.80;1.00
12436;DHT22;6282;51.440;6.938;2023-07-13T02:12:34;16.20;99.90
12436;DHT22;6282;51.440;6.938;2023-07-13T02:15:01;14.60;99.90
12436;DHT22;6282;51.440;6.938;2023-07-13T02:17:28;15.60;67.50
12436;DHT22;6282;51.440;6.938;2023-07-13T02:19:55;16.00;1.00
12436;DHT22;6282;51.440;6.938;2023-07-13T02:22:22;15.50;1.00
12436;DHT22;6282;51.440;6.938;2023-07-13T02:29:44;15.70;1.00
12436;DHT22;6282;51.440;6.938;2023-07-13T02:32:11;15.70;99.90
12436;DHT22;6282;51.440;6.938;2023-07-13T02:34:40;15.80;1.00
12436;DHT22;6282;51.440;6.938;2023-07-13T02:37:07;15.30;1.00
12436;DHT22;6282;51.440;6.938;2023-07-13T02:39:33;16.10;1.00
12436;DHT22;6282;51.440;6.938;2023-07-13T02:42:00;15.50;34.00
12436;DHT22;6282;51.440;6.938;2023-07-13T02:46:56;16.00;99.90
12436;DHT22;6282;51.440;6.938;2023-07-13T02:56:44;15.30;1.00
12436;DHT22;6282;51.440;6.938;2023-07-13T03:01:38;15.20;1.00
12436;DHT22;6282;51.440;6.938;2023-07-13T03:04:06;15.50;1.00
12436;DHT22;6282;51.440;6.938;2023-07-13T03:11:29;15.20;1.00
12436;DHT22;6282;51.440;6.938;2023-07-13T03:13:57;15.90;1.00
12436;DHT22;6282;51.440;6.938;2023-07-13T03:16:23;14.90;1.00
12436;DHT22;6282;51.440;6.938;2023-07-13T03:18:50;15.20;1.00
12436;DHT22;6282;51.440;6.938;2023-07-13T03:21:18;15.40;1.00
12436;DHT22;6282;51.440;6.938;2023-07-13T03:23:46;15.30;99.90
12436;DHT22;6282;51.440;6.938;2023-07-13T03:26:15;15.30;79.00
12436;DHT22;6282;51.440;6.938;2023-07-13T03:28:42;14.80;99.90
12436;DHT22;6282;51.440;6.938;2023-07-13T03:31:12;15.30;99.90
12436;DHT22;6282;51.440;6.938;2023-07-13T03:33:39;15.20;1.00
12436;DHT22;6282;51.440;6.938;2023-07-13T03:36:07;15.10;99.90
12436;DHT22;6282;51.440;6.938;2023-07-13T03:38:36;15.30;1.00
12436;DHT22;6282;51.440;6.938;2023-07-13T03:43:30;14.70;99.90
12436;DHT22;6282;51.440;6.938;2023-07-13T03:45:57;14.90;99.90
12436;DHT22;6282;51.440;6.938;2023-07-13T03:48:23;15.20;1.00
12436;DHT22;6282;51.440;6.938;2023-07-13T03:50:50;17.90;99.90
12436;DHT22;6282;51.440;6.938;2023-07-13T03:53:17;15.70;1.00
12436;DHT22;6282;51.440;6.938;2023-07-13T03:55:46;15.60;1.00
12436;DHT22;6282;51.440;6.938;2023-07-13T03:58:28;15.70;1.00
12436;DHT22;6282;51.440;6.938;2023-07-13T04:05:50;15.20;1.00
12436;DHT22;6282;51.440;6.938;2023-07-13T04:08:17;15.80;1.00
12436;DHT22;6282;51.440;6.938;2023-07-13T04:10:45;15.30;1.00
12436;DHT22;6282;51.440;6.938;2023-07-13T04:13:12;15.90;1.00
12436;DHT22;6282;51.440;6.938;2023-07-13T04:15:40;15.60;99.90
12436;DHT22;6282;51.440;6.938;2023-07-13T04:18:07;15.40;99.90
12436;DHT22;6282;51.440;6.938;2023-07-13T04:20:34;16.00;1.00
12436;DHT22;6282;51.440;6.938;2023-07-13T04:23:01;15.70;1.00
12436;DHT22;6282;51.440;6.938;2023-07-13T04:25:28;15.60;99.90
12436;DHT22;6282;51.440;6.938;2023-07-13T04:27:56;15.80;99.90
12436;DHT22;6282;51.440;6.938;2023-07-13T04:32:51;15.90;99.90
12436;DHT22;6282;51.440;6.938;2023-07-13T04:35:18;15.90;99.90
12436;DHT22;6282;51.440;6.938;2023-07-13T04:37:48;16.20;99.90
12436;DHT22;6282;51.440;6.938;2023-07-13T04:40:15;15.60;99.90
12436;DHT22;6282;51.440;6.938;2023-07-13T04:42:42;16.20;99.90
12436;DHT22;6282;51.440;6.938;2023-07-13T04:45:11;16.30;99.90
12436;DHT22;6282;51.440;6.938;2023-07-13T04:47:38;16.00;99.90
12436;DHT22;6282;51.440;6.938;2023-07-13T04:50:06;15.50;1.00
12436;DHT22;6282;51.440;6.938;2023-07-13T04:55:00;15.90;99.90
12436;DHT22;6282;51.440;6.938;2023-07-13T04:57:27;16.30;99.90
12436;DHT22;6282;51.440;6.938;2023-07-13T04:59:54;16.00;1.00
12436;DHT22;6282;51.440;6.938;2023-07-13T05:02:23;16.10;99.90
12436;DHT22;6282;51.440;6.938;2023-07-13T05:04:49;16.20;99.90
12436;DHT22;6282;51.440;6.938;2023-07-13T05:07:16;16.00;1.00
12436;DHT22;6282;51.440;6.938;2023-07-13T05:09:43;16.20;1.00
12436;DHT22;6282;51.440;6.938;2023-07-13T05:12:10;16.40;99.90
12436;DHT22;6282;51.440;6.938;2023-07-13T05:17:04;16.50;99.90
12436;DHT22;6282;51.440;6.938;2023-07-13T05:19:33;15.80;99.90
12436;DHT22;6282;51.440;6.938;2023-07-13T05:24:28;16.90;99.90
12436;DHT22;6282;51.440;6.938;2023-07-13T05:26:55;16.70;99.90
12436;DHT22;6282;51.440;6.938;2023-07-13T05:29:22;16.70;99.90
12436;DHT22;6282;51.440;6.938;2023-07-13T05:31:49;16.70;99.90
12436;DHT22;6282;51.440;6.938;2023-07-13T05:34:16;16.80;99.90
12436;DHT22;6282;51.440;6.938;2023-07-13T05:36:45;17.30;99.90
12436;DHT22;6282;51.440;6.938;2023-07-13T05:39:11;16.40;99.90
12436;DHT22;6282;51.440;6.938;2023-07-13T05:41:38;17.00;99.90
12436;DHT22;6282;51.440;6.938;2023-07-13T05:46:33;17.20;99.90
12436;DHT22;6282;51.440;6.938;2023-07-13T05:49:00;17.10;99.90
12436;DHT22;6282;51.440;6.938;2023-07-13T05:51:30;17.10;99.90
12436;DHT22;6282;51.440;6.938;2023-07-13T05:53:58;17.60;99.90
12436;DHT22;6282;51.440;6.938;2023-07-13T05:56:25;16.70;99.90
12436;DHT22;6282;51.440;6.938;2023-07-13T05:58:52;17.00;99.90
12436;DHT22;6282;51.440;6.938;2023-07-13T06:01:19;17.30;1.00
12436;DHT22;6282;51.440;6.938;2023-07-13T06:03:46;16.90;99.90
12436;DHT22;6282;51.440;6.938;2023-07-13T06:06:13;17.60;1.00
12436;DHT22;6282;51.440;6.938;2023-07-13T06:08:40;16.60;99.90
12436;DHT22;6282;51.440;6.938;2023-07-13T06:11:13;17.40;99.90
12436;DHT22;6282;51.440;6.938;2023-07-13T06:13:40;16.60;99.90
12436;DHT22;6282;51.440;6.938;2023-07-13T06:16:07;16.90;1.00
12436;DHT22;6282;51.440;6.938;2023-07-13T06:18:36;16.60;99.90
12436;DHT22;6282;51.440;6.938;2023-07-13T06:21:06;16.80;99.90
12436;DHT22;6282;51.440;6.938;2023-07-13T06:23:34;17.00;1.00
12436;DHT22;6282;51.440;6.938;2023-07-13T06:26:01;17.40;99.90
12436;DHT22;6282;51.440;6.938;2023-07-13T06:28:29;17.50;99.90
12436;DHT22;6282;51.440;6.938;2023-07-13T06:30:57;18.00;92.20
12436;DHT22;6282;51.440;6.938;2023-07-13T06:33:24;17.50;1.00
12436;DHT22;6282;51.440;6.938;2023-07-13T06:35:50;18.10;99.90
12436;DHT22;6282;51.440;6.938;2023-07-13T06:38:17;17.60;99.90
12436;DHT22;6282;51.440;6.938;2023-07-13T06:40:44;18.20;1.00
12436;DHT22;6282;51.440;6.938;2023-07-13T06:43:11;18.10;1.00
12436;DHT22;6282;51.440;6.938;2023-07-13T06:45:43;17.90;99.90
12436;DHT22;6282;51.440;6.938;2023-07-13T06:48:11;18.30;1.00
12436;DHT22;6282;51.440;6.938;2023-07-13T06:50:38;18.20;99.90
12436;DHT22;6282;51.440;6.938;2023-07-13T06:53:05;18.40;34.70
12436;DHT22;6282;51.440;6.938;2023-07-13T06:55:32;18.10;1.00
12436;DHT22;6282;51.440;6.938;2023-07-13T06:57:58;17.90;99.90
12436;DHT22;6282;51.440;6.938;2023-07-13T07:00:25;18.70;99.90
12436;DHT22;6282;51.440;6.938;2023-07-13T07:02:54;18.30;99.90
12436;DHT22;6282;51.440;6.938;2023-07-13T07:05:21;19.40;1.00
12436;DHT22;6282;51.440;6.938;2023-07-13T07:07:48;19.50;97.50
12436;DHT22;6282;51.440;6.938;2023-07-13T07:10:15;19.60;99.90
12436;DHT22;6282;51.440;6.938;2023-07-13T07:12:41;19.80;1.00
12436;DHT22;6282;51.440;6.938;2023-07-13T07:15:09;20.50;28.70
12436;DHT22;6282;51.440;6.938;2023-07-13T07:17:36;19.70;1.00
12436;DHT22;6282;51.440;6.938;2023-07-13T07:20:05;20.50;1.00
12436;DHT22;6282;51.440;6.938;2023-07-13T07:22:32;20.30;99.90
12436;DHT22;6282;51.440;6.938;2023-07-13T07:25:00;20.20;91.70
12436;DHT22;6282;51.440;6.938;2023-07-13T07:27:26;21.00;1.00
12436;DHT22;6282;51.440;6.938;2023-07-13T07:29:53;21.80;1.00
12436;DHT22;6282;51.440;6.938;2023-07-13T07:32:20;21.90;99.90
12436;DHT22;6282;51.440;6.938;2023-07-13T07:34:47;23.30;99.90
12436;DHT22;6282;51.440;6.938;2023-07-13T07:37:16;24.20;1.00
12436;DHT22;6282;51.440;6.938;2023-07-13T07:39:43;23.40;1.00
12436;DHT22;6282;51.440;6.938;2023-07-13T07:42:10;24.40;1.00
12436;DHT22;6282;51.440;6.938;2023-07-13T07:44:39;25.00;99.90
12436;DHT22;6282;51.440;6.938;2023-07-13T07:47:06;25.30;1.00
12436;DHT22;6282;51.440;6.938;2023-07-13T07:49:33;25.70;1.00
12436;DHT22;6282;51.440;6.938;2023-07-13T07:52:00;26.20;99.90
12436;DHT22;6282;51.440;6.938;2023-07-13T07:54:29;26.10;1.00
12436;DHT22;6282;51.440;6.938;2023-07-13T07:56:56;25.90;1.00
12436;DHT22;6282;51.440;6.938;2023-07-13T07:59:23;24.60;99.90
12436;DHT22;6282;51.440;6.938;2023-07-13T08:01:50;24.10;99.90
12436;DHT22;6282;51.440;6.938;2023-07-13T08:04:17;24.50;1.00
12436;DHT22;6282;51.440;6.938;2023-07-13T08:06:44;23.90;1.00
12436;DHT22;6282;51.440;6.938;2023-07-13T08:09:11;24.30;99.90
12436;DHT22;6282;51.440;6.938;2023-07-13T08:11:39;24.20;1.00
12436;DHT22;6282;51.440;6.938;2023-07-13T08:14:06;24.60;87.50
12436;DHT22;6282;51.440;6.938;2023-07-13T08:16:33;24.40;1.00
12436;DHT22;6282;51.440;6.938;2023-07-13T08:19:00;25.10;96.10
12436;DHT22;6282;51.440;6.938;2023-07-13T08:21:26;25.30;99.90
12436;DHT22;6282;51.440;6.938;2023-07-13T08:23:53;25.80;1.00
12436;DHT22;6282;51.440;6.938;2023-07-13T08:26:20;26.70;99.90
12436;DHT22;6282;51.440;6.938;2023-07-13T08:28:48;26.00;64.90
12436;DHT22;6282;51.440;6.938;2023-07-13T08:31:15;25.20;99.90
12436;DHT22;6282;51.440;6.938;2023-07-13T08:33:42;24.80;67.90
12436;DHT22;6282;51.440;6.938;2023-07-13T08:36:09;24.90;99.90
12436;DHT22;6282;51.440;6.938;2023-07-13T08:41:11;24.70;99.90
12436;DHT22;6282;51.440;6.938;2023-07-13T08:43:38;25.70;1.00
12436;DHT22;6282;51.440;6.938;2023-07-13T08:46:11;25.60;1.00
12436;DHT22;6282;51.440;6.938;2023-07-13T08:48:44;26.00;99.90
12436;DHT22;6282;51.440;6.938;2023-07-13T08:51:21;25.70;1.00
12436;DHT22;6282;51.440;6.938;2023-07-13T08:53:54;26.30;99.90
12436;DHT22;6282;51.440;6.938;2023-07-13T08:56:24;27.30;99.90
12436;DHT22;6282;51.440;6.938;2023-07-13T08:58:55;26.70;1.00
12436;DHT22;6282;51.440;6.938;2023-07-13T09:01:28;25.50;1.00
12436;DHT22;6282;51.440;6.938;2023-07-13T09:04:01;24.80;1.00
12436;DHT22;6282;51.440;6.938;2023-07-13T09:06:39;24.20;99.90
12436;DHT22;6282;51.440;6.938;2023-07-13T09:09:16;24.40;18.20
12436;DHT22;6282;51.440;6.938;2023-07-13T09:11:50;25.00;99.90
12436;DHT22;6282;51.440;6.938;2023-07-13T09:14:43;24.60;1.00
12436;DHT22;6282;51.440;6.938;2023-07-13T09:17:17;25.90;99.90
12436;DHT22;6282;51.440;6.938;2023-07-13T09:19:47;27.20;99.90
12436;DHT22;6282;51.440;6.938;2023-07-13T09:22:17;27.50;99.90
12436;DHT22;6282;51.440;6.938;2023-07-13T09:24:52;27.40;99.90
12436;DHT22;6282;51.440;6.938;2023-07-13T09:27:23;25.90;99.90
12436;DHT22;6282;51.440;6.938;2023-07-13T09:30:00;26.00;1.00
12436;DHT22;6282;51.440;6.938;2023-07-13T09:32:31;26.90;99.90
12436;DHT22;6282;51.440;6.938;2023-07-13T09:34:59;26.90;99.90
12436;DHT22;6282;51.440;6.938;2023-07-13T09:37:30;28.00;99.90
12436;DHT22;6282;51.440;6.938;2023-07-13T09:39:58;27.80;99.90
12436;DHT22;6282;51.440;6.938;2023-07-13T09:42:26;28.50;99.90
12436;DHT22;6282;51.440;6.938;2023-07-13T09:44:56;28.00;99.90
12436;DHT22;6282;51.440;6.938;2023-07-13T09:47:24;25.70;99.90
12436;DHT22;6282;51.440;6.938;2023-07-13T09:49:58;24.70;99.90
12436;DHT22;6282;51.440;6.938;2023-07-13T09:52:27;22.50;1.00
12436;DHT22;6282;51.440;6.938;2023-07-13T09:54:55;24.70;67.60
12436;DHT22;6282;51.440;6.938;2023-07-13T09:57:26;24.40;1.00
12436;DHT22;6282;51.440;6.938;2023-07-13T09:59:54;23.70;1.00
12436;DHT22;6282;51.440;6.938;2023-07-13T10:02:27;23.70;99.90
12436;DHT22;6282;51.440;6.938;2023-07-13T10:05:00;23.70;1.00
12436;DHT22;6282;51.440;6.938;2023-07-13T10:07:29;23.80;99.90
12436;DHT22;6282;51.440;6.938;2023-07-13T10:09:57;24.00;1.00
12436;DHT22;6282;51.440;6.938;2023-07-13T10:12:27;22.70;99.90
12436;DHT22;6282;51.440;6.938;2023-07-13T10:14:56;21.70;85.30
12436;DHT22;6282;51.440;6.938;2023-07-13T10:17:27;22.00;99.90
12436;DHT22;6282;51.440;6.938;2023-07-13T10:20:01;22.00;18.90
12436;DHT22;6282;51.440;6.938;2023-07-13T10:22:36;21.80;1.00
12436;DHT22;6282;51.440;6.938;2023-07-13T10:25:18;22.10;70.90
12436;DHT22;6282;51.440;6.938;2023-07-13T10:27:49;22.90;1.00
12436;DHT22;6282;51.440;6.938;2023-07-13T10:30:20;22.60;1.00
12436;DHT22;6282;51.440;6.938;2023-07-13T10:32:48;22.60;99.90
12436;DHT22;6282;51.440;6.938;2023-07-13T10:35:19;23.10;1.00
12436;DHT22;6282;51.440;6.938;2023-07-13T10:37:50;23.50;41.10
12436;DHT22;6282;51.440;6.938;2023-07-13T10:40:21;23.10;99.90
12436;DHT22;6282;51.440;6.938;2023-07-13T10:42:51;22.80;99.90
12436;DHT22;6282;51.440;6.938;2023-07-13T10:45:21;23.10;99.90
12436;DHT22;6282;51.440;6.938;2023-07-13T10:47:50;22.80;99.90
12436;DHT22;6282;51.440;6.938;2023-07-13T10:50:21;22.90;24.80
12436;DHT22;6282;51.440;6.938;2023-07-13T10:52:50;22.90;1.00
12436;DHT22;6282;51.440;6.938;2023-07-13T10:55:37;21.90;99.90
12436;DHT22;6282;51.440;6.938;2023-07-13T10:58:13;22.20;1.00
12436;DHT22;6282;51.440;6.938;2023-07-13T11:00:47;21.90;1.00
12436;DHT22;6282;51.440;6.938;2023-07-13T11:03:20;23.00;1.00
12436;DHT22;6282;51.440;6.938;2023-07-13T11:06:05;22.60;1.00
12436;DHT22;6282;51.440;6.938;2023-07-13T11:08:36;23.10;99.90
12436;DHT22;6282;51.440;6.938;2023-07-13T11:11:37;22.10;99.90
12436;DHT22;6282;51.440;6.938;2023-07-13T11:14:09;22.60;1.00
12436;DHT22;6282;51.440;6.938;2023-07-13T11:16:52;21.90;1.00
12436;DHT22;6282;51.440;6.938;2023-07-13T11:19:41;22.20;1.00
12436;DHT22;6282;51.440;6.938;2023-07-13T11:22:23;22.70;1.00
12436;DHT22;6282;51.440;6.938;2023-07-13T11:24:59;22.40;1.00
12436;DHT22;6282;51.440;6.938;2023-07-13T11:27:40;22.70;1.00
12436;DHT22;6282;51.440;6.938;2023-07-13T11:33:04;23.20;99.90
12436;DHT22;6282;51.440;6.938;2023-07-13T11:35:36;23.60;1.00
12436;DHT22;6282;51.440;6.938;2023-07-13T11:38:15;22.70;1.00
12436;DHT22;6282;51.440;6.938;2023-07-13T11:40:44;23.00;99.90
12436;DHT22;6282;51.440;6.938;2023-07-13T11:43:14;23.60;90.80
12436;DHT22;6282;51.440;6.938;2023-07-13T11:45:41;23.10;1.00
12436;DHT22;6282;51.440;6.938;2023-07-13T11:48:22;23.20;99.90
12436;DHT22;6282;51.440;6.938;2023-07-13T11:50:52;22.40;35.50
12436;DHT22;6282;51.440;6.938;2023-07-13T11:53:21;23.10;99.90
12436;DHT22;6282;51.440;6.938;2023-07-13T11:55:48;23.00;11.30
12436;DHT22;6282;51.440;6.938;2023-07-13T11:58:21;22.60;99.90
12436;DHT22;6282;51.440;6.938;2023-07-13T12:00:50;23.80;1.00
12436;DHT22;6282;51.440;6.938;2023-07-13T12:03:21;22.60;1.00
12436;DHT22;6282;51.440;6.938;2023-07-13T12:05:56;22.90;99.90
12436;DHT22;6282;51.440;6.938;2023-07-13T12:08:26;22.80;96.70
12436;DHT22;6282;51.440;6.938;2023-07-13T12:11:01;22.90;99.90
12436;DHT22;6282;51.440;6.938;2023-07-13T12:13:35;23.30;99.90
12436;DHT22;6282;51.440;6.938;2023-07-13T12:18:30;23.70;99.90
12436;DHT22;6282;51.440;6.938;2023-07-13T12:23:31;23.30;99.90
12436;DHT22;6282;51.440;6.938;2023-07-13T12:26:02;23.50;1.00
12436;DHT22;6282;51.440;6.938;2023-07-13T12:28:34;23.60;99.90
12436;DHT22;6282;51.440;6.938;2023-07-13T12:31:04;23.80;1.00
12436;DHT22;6282;51.440;6.938;2023-07-13T12:33:33;23.90;99.90
12436;DHT22;6282;51.440;6.938;2023-07-13T12:36:01;23.60;99.90
12436;DHT22;6282;51.440;6.938;2023-07-13T12:38:32;23.40;99.90
12436;DHT22;6282;51.440;6.938;2023-07-13T12:43:26;23.70;99.90
12436;DHT22;6282;51.440;6.938;2023-07-13T12:45:58;23.10;1.00
12436;DHT22;6282;51.440;6.938;2023-07-13T12:48:26;24.10;99.90
12436;DHT22;6282;51.440;6.938;2023-07-13T12:50:54;23.00;79.70
12436;DHT22;6282;51.440;6.938;2023-07-13T12:53:27;23.20;99.90
12436;DHT22;6282;51.440;6.938;2023-07-13T12:56:01;23.20;99.90
12436;DHT22;6282;51.440;6.938;2023-07-13T12:58:30;23.50;1.00
12436;DHT22;6282;51.440;6.938;2023-07-13T13:01:01;23.00;99.90
12436;DHT22;6282;51.440;6.938;2023-07-13T13:03:30;22.90;55.70
12436;DHT22;6282;51.440;6.938;2023-07-13T13:05:59;22.70;99.90
12436;DHT22;6282;51.440;6.938;2023-07-13T13:08:30;22.20;99.90
12436;DHT22;6282;51.440;6.938;2023-07-13T13:10:58;21.90;99.90
12436;DHT22;6282;51.440;6.938;2023-07-13T13:13:25;21.90;99.90
12436;DHT22;6282;51.440;6.938;2023-07-13T13:15:52;21.70;99.90
12436;DHT22;6282;51.440;6.938;2023-07-13T13:18:20;22.00;1.00
12436;DHT22;6282;51.440;6.938;2023-07-13T13:20:49;21.50;99.90
12436;DHT22;6282;51.440;6.938;2023-07-13T13:23:18;21.90;99.90
12436;DHT22;6282;51.440;6.938;2023-07-13T13:25:46;21.80;1.00
12436;DHT22;6282;51.440;6.938;2023-07-13T13:28:17;22.00;1.00
12436;DHT22;6282;51.440;6.938;2023-07-13T13:30:46;21.20;6.90
12436;DHT22;6282;51.440;6.938;2023-07-13T13:33:15;21.90;1.00
12436;DHT22;6282;51.440;6.938;2023-07-13T13:38:11;22.20;1.00
12436;DHT22;6282;51.440;6.938;2023-07-13T13:40:39;23.70;1.00
12436;DHT22;6282;51.440;6.938;2023-07-13T13:43:16;23.20;1.00
12436;DHT22;6282;51.440;6.938;2023-07-13T13:48:14;23.70;99.90
12436;DHT22;6282;51.440;6.938;2023-07-13T13:50:42;23.20;99.90
12436;DHT22;6282;51.440;6.938;2023-07-13T13:53:11;23.80;99.90
12436;DHT22;6282;51.440;6.938;2023-07-13T13:55:39;23.90;99.90
12436;DHT22;6282;51.440;6.938;2023-07-13T13:58:08;22.30;1.00
12436;DHT22;6282;51.440;6.938;2023-07-13T14:00:38;23.00;1.00
12436;DHT22;6282;51.440;6.938;2023-07-13T14:05:32;22.20;99.90
12436;DHT22;6282;51.440;6.938;2023-07-13T14:07:59;22.50;99.90
12436;DHT22;6282;51.440;6.938;2023-07-13T14:10:26;21.60;1.00
12436;DHT22;6282;51.440;6.938;2023-07-13T14:12:55;22.50;99.90
12436;DHT22;6282;51.440;6.938;2023-07-13T14:15:24;22.30;99.90
12436;DHT22;6282;51.440;6.938;2023-07-13T14:17:52;22.10;99.90
12436;DHT22;6282;51.440;6.938;2023-07-13T14:20:21;22.00;99.90
12436;DHT22;6282;51.440;6.938;2023-07-13T14:22:50;22.00;99.90
12436;DHT22;6282;51.440;6.938;2023-07-13T14:25:17;21.50;99.90
12436;DHT22;6282;51.440;6.938;2023-07-13T14:27:46;21.80;1.00
12436;DHT22;6282;51.440;6.938;2023-07-13T14:30:16;21.70;1.00
12436;DHT22;6282;51.440;6.938;2023-07-13T14:32:43;22.00;1.00
12436;DHT22;6282;51.440;6.938;2023-07-13T14:35:12;21.40;99.90
12436;DHT22;6282;51.440;6.938;2023-07-13T14:40:13;22.00;1.00
12436;DHT22;6282;51.440;6.938;2023-07-13T14:42:40;21.30;99.90
12436;DHT22;6282;51.440;6.938;2023-07-13T14:45:13;22.10;99.90
12436;DHT22;6282;51.440;6.938;2023-07-13T14:50:14;23.00;99.90
12436;DHT22;6282;51.440;6.938;2023-07-13T14:52:43;22.70;99.90
12436;DHT22;6282;51.440;6.938;2023-07-13T14:55:11;22.20;1.00
12436;DHT22;6282;51.440;6.938;2023-07-13T14:57:38;22.00;1.00
12436;DHT22;6282;51.440;6.938;2023-07-13T15:00:09;22.60;1.00
12436;DHT22;6282;51.440;6.938;2023-07-13T15:02:39;22.60;1.00
12436;DHT22;6282;51.440;6.938;2023-07-13T15:05:14;23.00;1.00
12436;DHT22;6282;51.440;6.938;2023-07-13T15:10:14;22.10;1.00
12436;DHT22;6282;51.440;6.938;2023-07-13T15:15:08;22.50;1.00
12436;DHT22;6282;51.440;6.938;2023-07-13T15:17:37;22.60;99.90
12436;DHT22;6282;51.440;6.938;2023-07-13T15:20:11;22.70;87.50
12436;DHT22;6282;51.440;6.938;2023-07-13T15:22:41;21.90;1.00
12436;DHT22;6282;51.440;6.938;2023-07-13T15:25:17;22.40;99.90
12436;DHT22;6282;51.440;6.938;2023-07-13T15:27:46;22.70;99.90
12436;DHT22;6282;51.440;6.938;2023-07-13T15:30:14;22.00;99.90
12436;DHT22;6282;51.440;6.938;2023-07-13T15:32:42;21.50;1.00
12436;DHT22;6282;51.440;6.938;2023-07-13T15:35:13;21.40;99.90
12436;DHT22;6282;51.440;6.938;2023-07-13T15:37:42;21.50;1.00
12436;DHT22;6282;51.440;6.938;2023-07-13T15:40:10;20.80;1.00
12436;DHT22;6282;51.440;6.938;2023-07-13T15:42:38;20.30;93.20
12436;DHT22;6282;51.440;6.938;2023-07-13T15:45:15;20.70;40.70
12436;DHT22;6282;51.440;6.938;2023-07-13T15:50:13;20.50;1.00
12436;DHT22;6282;51.440;6.938;2023-07-13T15:52:42;19.80;1.00
12436;DHT22;6282;51.440;6.938;2023-07-13T15:55:11;19.90;99.90
12436;DHT22;6282;51.440;6.938;2023-07-13T16:00:14;20.50;1.00
12436;DHT22;6282;51.440;6.938;2023-07-13T16:02:43;20.50;1.00
12436;DHT22;6282;51.440;6.938;2023-07-13T16:05:09;20.20;1.00
12436;DHT22;6282;51.440;6.938;2023-07-13T16:07:36;21.00;99.90
12436;DHT22;6282;51.440;6.938;2023-07-13T16:10:07;20.80;99.90
12436;DHT22;6282;51.440;6.938;2023-07-13T16:12:34;20.90;7.80
12436;DHT22;6282;51.440;6.938;2023-07-13T16:15:02;21.10;99.90
12436;DHT22;6282;51.440;6.938;2023-07-13T16:17:29;21.40;1.00
12436;DHT22;6282;51.440;6.938;2023-07-13T16:24:52;20.70;99.90
12436;DHT22;6282;51.440;6.938;2023-07-13T16:27:23;21.00;90.30
12436;DHT22;6282;51.440;6.938;2023-07-13T16:29:50;21.20;1.00
12436;DHT22;6282;51.440;6.938;2023-07-13T16:32:17;20.90;99.90
12436;DHT22;6282;51.440;6.938;2023-07-13T16:34:44;21.20;79.80
12436;DHT22;6282;51.440;6.938;2023-07-13T16:37:15;21.10;99.90
12436;DHT22;6282;51.440;6.938;2023-07-13T16:39:46;21.30;1.00
12436;DHT22;6282;51.440;6.938;2023-07-13T16:44:42;21.40;99.90
12436;DHT22;6282;51.440;6.938;2023-07-13T16:47:13;21.40;48.60
12436;DHT22;6282;51.440;6.938;2023-07-13T16:49:41;20.90;1.00
12436;DHT22;6282;51.440;6.938;2023-07-13T16:52:09;21.10;1.00
12436;DHT22;6282;51.440;6.938;2023-07-13T16:54:38;21.00;99.90
12436;DHT22;6282;51.440;6.938;2023-07-13T16:57:12;21.50;1.00
12436;DHT22;6282;51.440;6.938;2023-07-13T16:59:42;21.00;8.50
12436;DHT22;6282;51.440;6.938;2023-07-13T17:02:32;21.10;1.00
12436;DHT22;6282;51.440;6.938;2023-07-13T17:05:00;21.70;99.90
12436;DHT22;6282;51.440;6.938;2023-07-13T17:17:22;21.10;1.00
12436;DHT22;6282;51.440;6.938;2023-07-13T17:19:52;21.30;1.00
12436;DHT22;6282;51.440;6.938;2023-07-13T17:22:19;21.30;1.00
12436;DHT22;6282;51.440;6.938;2023-07-13T17:24:47;20.80;1.00
12436;DHT22;6282;51.440;6.938;2023-07-13T17:27:15;21.30;1.00
12436;DHT22;6282;51.440;6.938;2023-07-13T17:29:42;20.60;1.00
12436;DHT22;6282;51.440;6.938;2023-07-13T17:32:16;20.80;99.90
12436;DHT22;6282;51.440;6.938;2023-07-13T17:37:12;21.30;99.90
12436;DHT22;6282;51.440;6.938;2023-07-13T17:39:41;21.90;1.00
12436;DHT22;6282;51.440;6.938;2023-07-13T17:42:11;21.40;1.00
12436;DHT22;6282;51.440;6.938;2023-07-13T17:44:38;21.40;9.20
12436;DHT22;6282;51.440;6.938;2023-07-13T17:47:11;21.40;1.00
12436;DHT22;6282;51.440;6.938;2023-07-13T17:49:42;21.60;1.00
12436;DHT22;6282;51.440;6.938;2023-07-13T17:52:11;21.20;1.00
12436;DHT22;6282;51.440;6.938;2023-07-13T17:57:06;21.70;1.00
12436;DHT22;6282;51.440;6.938;2023-07-13T17:59:33;22.30;99.90
12436;DHT22;6282;51.440;6.938;2023-07-13T18:02:00;21.90;99.90
12436;DHT22;6282;51.440;6.938;2023-07-13T18:04:28;21.50;1.00
12436;DHT22;6282;51.440;6.938;2023-07-13T18:12:01;20.70;99.90
12436;DHT22;6282;51.440;6.938;2023-07-13T18:14:28;21.10;1.00
12436;DHT22;6282;51.440;6.938;2023-07-13T18:16:58;23.00;99.90
12436;DHT22;6282;51.440;6.938;2023-07-13T18:19:31;20.90;99.90
12436;DHT22;6282;51.440;6.938;2023-07-13T18:21:59;21.20;1.00
12436;DHT22;6282;51.440;6.938;2023-07-13T18:24:27;21.20;1.00
12436;DHT22;6282;51.440;6.938;2023-07-13T18:26:56;20.90;25.40
12436;DHT22;6282;51.440;6.938;2023-07-13T18:29:22;21.30;99.90